createdAt,value
2023-04-19T00:01:09.977Z,64.50
2023-04-19T00:03:39.586Z,64.60
2023-04-19T00:06:10.252Z,64.80
2023-04-19T00:08:42.222Z,64.70
2023-04-19T00:11:11.945Z,64.90
2023-04-19T00:13:41.399Z,64.90
2023-04-19T00:16:11.016Z,65.10
2023-04-19T00:18:40.645Z,65.20
2023-04-19T00:21:10.336Z,65.20
2023-04-19T00:23:39.853Z,65.30
2023-04-19T00:26:11.100Z,65.30
2023-04-19T00:28:41.135Z,65.30
2023-04-19T00:31:11.355Z,65.40
2023-04-19T00:33:42.468Z,65.40
2023-04-19T00:36:12.927Z,65.60
2023-04-19T00:38:42.374Z,65.70
2023-04-19T00:41:13.730Z,65.70
2023-04-19T00:43:44.427Z,66.10
2023-04-19T00:46:16.396Z,66.10
2023-04-19T00:48:47.476Z,66.10
2023-04-19T00:51:17.566Z,66.20
2023-04-19T00:53:47.154Z,66.30
2023-04-19T00:56:18.527Z,66.30
2023-04-19T00:58:50.632Z,66.40
2023-04-19T01:01:20.246Z,66.40
2023-04-19T01:03:52.468Z,66.40
2023-04-19T01:06:23.829Z,66.50
2023-04-19T01:08:53.265Z,66.80
2023-04-19T01:11:28.801Z,66.70
2023-04-19T01:13:58.486Z,66.70
2023-04-19T01:16:28.698Z,66.90
2023-04-19T01:18:58.038Z,66.80
2023-04-19T01:21:29.745Z,66.90
2023-04-19T01:23:59.321Z,66.80
2023-04-19T01:26:28.884Z,66.90
2023-04-19T01:28:58.473Z,66.90
2023-04-19T01:31:27.927Z,67.30
2023-04-19T01:33:57.432Z,67.10
2023-04-19T01:36:27.733Z,67.20
2023-04-19T01:38:56.639Z,67.30
2023-04-19T01:41:27.060Z,67.60
2023-04-19T01:43:56.602Z,67.50
2023-04-19T01:46:26.075Z,67.50
2023-04-19T01:48:55.444Z,67.40
2023-04-19T01:51:24.792Z,67.50
2023-04-19T01:53:54.602Z,67.50
2023-04-19T01:56:24.994Z,68.00
2023-04-19T01:58:54.398Z,68.20
2023-04-19T02:01:24.024Z,68.30
2023-04-19T02:03:53.771Z,68.60
2023-04-19T02:06:23.438Z,68.70
2023-04-19T02:08:52.940Z,68.90
2023-04-19T02:11:22.381Z,69.00
2023-04-19T02:13:51.760Z,69.20
2023-04-19T02:16:21.247Z,69.00
2023-04-19T02:18:52.176Z,69.50
2023-04-19T02:21:21.690Z,69.30
2023-04-19T02:23:51.353Z,69.60
2023-04-19T02:26:21.661Z,69.30
2023-04-19T02:28:53.070Z,69.70
2023-04-19T02:31:22.613Z,69.70
2023-04-19T02:33:52.122Z,69.80
2023-04-19T02:36:21.511Z,70.10
2023-04-19T02:38:50.985Z,70.20
2023-04-19T02:41:22.137Z,70.30
2023-04-19T02:43:51.687Z,70.10
2023-04-19T02:46:21.141Z,70.30
2023-04-19T02:48:50.651Z,70.50
2023-04-19T02:51:20.255Z,70.50
2023-04-19T02:53:49.679Z,70.70
2023-04-19T02:56:19.168Z,70.90
2023-04-19T02:58:49.031Z,71.00
2023-04-19T03:01:18.573Z,71.00
2023-04-19T03:03:48.112Z,71.00
2023-04-19T03:06:17.772Z,71.00
2023-04-19T03:08:47.306Z,71.00
2023-04-19T03:11:18.826Z,71.30
2023-04-19T03:13:48.634Z,71.50
2023-04-19T03:16:18.293Z,71.40
2023-04-19T03:18:49.601Z,71.60
2023-04-19T03:21:20.608Z,71.50
2023-04-19T03:23:51.679Z,71.50
2023-04-19T03:26:21.215Z,71.70
2023-04-19T03:28:52.280Z,71.60
2023-04-19T03:31:23.579Z,71.70
2023-04-19T03:33:53.456Z,71.70
2023-04-19T03:36:25.011Z,71.60
2023-04-19T03:38:54.499Z,71.50
2023-04-19T03:41:26.195Z,71.40
2023-04-19T03:44:13.788Z,71.30
2023-04-19T03:46:46.705Z,71.20
2023-04-19T03:49:18.163Z,71.10
2023-04-19T03:51:49.503Z,71.00
2023-04-19T03:54:18.920Z,71.00
2023-04-19T03:56:49.273Z,71.00
2023-04-19T03:59:18.880Z,70.80
2023-04-19T04:01:48.752Z,70.60
2023-04-19T04:04:18.622Z,70.70
2023-04-19T04:06:48.428Z,70.60
2023-04-19T04:09:18.546Z,70.50
2023-04-19T04:11:48.064Z,70.60
2023-04-19T04:14:17.605Z,70.80
2023-04-19T04:16:48.271Z,70.60
2023-04-19T04:19:18.793Z,70.60
2023-04-19T04:21:49.215Z,70.80
2023-04-19T04:24:20.169Z,70.80
2023-04-19T04:26:54.433Z,70.70
2023-04-19T04:29:29.029Z,70.80
2023-04-19T04:32:01.093Z,70.70
2023-04-19T04:34:33.001Z,70.60
2023-04-19T04:37:08.407Z,70.60
2023-04-19T04:39:39.760Z,70.70
2023-04-19T04:42:10.811Z,70.60
2023-04-19T04:44:42.170Z,70.80
2023-04-19T04:47:14.432Z,71.00
2023-04-19T04:49:45.680Z,70.90
2023-04-19T04:52:15.240Z,71.00
2023-04-19T04:54:46.406Z,71.00
2023-04-19T04:57:17.603Z,71.20
2023-04-19T04:59:48.924Z,71.10
2023-04-19T05:02:19.102Z,71.10
2023-04-19T05:04:48.677Z,71.00
2023-04-19T05:07:18.233Z,71.00
2023-04-19T05:09:47.854Z,71.20
2023-04-19T05:12:18.935Z,71.40
2023-04-19T05:14:48.460Z,71.20
2023-04-19T05:17:18.056Z,71.40
2023-04-19T05:19:47.991Z,71.30
2023-04-19T05:22:17.677Z,71.30
2023-04-19T05:24:47.349Z,71.30
2023-04-19T05:27:18.069Z,71.20
2023-04-19T05:29:47.549Z,71.30
2023-04-19T05:32:17.581Z,71.40
2023-04-19T05:34:48.648Z,70.90
2023-04-19T05:37:18.267Z,70.40
2023-04-19T05:39:48.138Z,70.30
2023-04-19T05:42:17.617Z,70.20
2023-04-19T05:44:47.245Z,70.00
2023-04-19T05:47:17.771Z,69.60
2023-04-19T05:50:04.951Z,69.40
2023-04-19T05:52:36.126Z,69.30
2023-04-19T05:55:05.820Z,69.20
2023-04-19T05:57:36.329Z,68.80
2023-04-19T06:00:08.185Z,69.20
2023-04-19T06:02:45.524Z,69.10
2023-04-19T06:05:15.798Z,69.00
2023-04-19T06:07:54.547Z,68.60
2023-04-19T06:10:16.764Z,67.90
2023-04-19T06:12:46.295Z,67.60
2023-04-19T06:15:15.859Z,67.80
2023-04-19T06:17:47.015Z,67.60
2023-04-19T06:20:16.520Z,67.50
2023-04-19T06:22:46.809Z,67.80
2023-04-19T06:25:16.306Z,67.50
2023-04-19T06:27:45.789Z,67.50
2023-04-19T06:30:15.370Z,66.70
2023-04-19T06:32:44.827Z,66.20
2023-04-19T06:35:14.627Z,65.80
2023-04-19T06:37:44.107Z,65.60
2023-04-19T06:40:13.569Z,65.20
2023-04-19T06:42:42.991Z,64.90
2023-04-19T06:45:15.165Z,65.50
2023-04-19T06:47:44.749Z,65.10
2023-04-19T06:50:14.219Z,64.60
2023-04-19T06:52:43.704Z,63.40
2023-04-19T06:55:13.195Z,62.70
2023-04-19T06:57:43.354Z,62.70
2023-04-19T07:00:13.993Z,62.80
2023-04-19T07:02:43.518Z,60.60
2023-04-19T07:05:13.465Z,60.00
2023-04-19T07:07:42.955Z,60.60
2023-04-19T07:10:12.917Z,60.00
2023-04-19T07:12:42.260Z,58.70
2023-04-19T07:15:12.339Z,59.20
2023-04-19T07:17:41.787Z,58.30
2023-04-19T07:20:11.910Z,58.00
2023-04-19T07:22:41.483Z,56.90
2023-04-19T07:25:11.670Z,56.60
2023-04-19T07:27:41.400Z,56.20
2023-04-19T07:30:12.557Z,56.20
2023-04-19T07:32:42.159Z,56.10
2023-04-19T07:35:11.684Z,55.90
2023-04-19T07:37:41.110Z,54.90
2023-04-19T07:40:11.234Z,52.70
2023-04-19T07:42:40.708Z,53.00
2023-04-19T07:45:10.831Z,52.50
2023-04-19T07:47:40.296Z,52.60
2023-04-19T07:50:10.550Z,52.00
2023-04-19T07:52:39.956Z,51.50
2023-04-19T07:55:09.752Z,51.00
2023-04-19T07:57:39.208Z,50.20
2023-04-19T08:00:10.377Z,49.40
2023-04-19T08:02:47.037Z,49.00
2023-04-19T08:05:17.918Z,48.50
2023-04-19T08:07:47.737Z,49.10
2023-04-19T08:10:17.165Z,48.20
2023-04-19T08:13:03.607Z,48.40
2023-04-19T08:15:50.927Z,48.60
2023-04-19T08:17:48.679Z,48.70
2023-04-19T08:20:18.152Z,46.50
2023-04-19T08:22:47.584Z,46.30
2023-04-19T08:25:17.324Z,48.30
2023-04-19T08:27:46.707Z,47.30
2023-04-19T08:30:16.395Z,47.10
2023-04-19T08:32:45.958Z,46.30
2023-04-19T08:35:15.580Z,46.00
2023-04-19T08:37:44.941Z,46.30
2023-04-19T08:40:14.600Z,44.90
2023-04-19T08:42:44.588Z,45.30
2023-04-19T08:47:58.657Z,44.80
2023-04-19T08:50:32.203Z,45.40
2023-04-19T08:52:57.358Z,44.50
2023-04-19T08:55:24.559Z,43.70
2023-04-19T08:57:54.031Z,44.10
2023-04-19T09:00:23.748Z,44.50
2023-04-19T09:02:55.806Z,44.10
2023-04-19T09:05:25.788Z,44.20
2023-04-19T09:07:55.512Z,45.90
2023-04-19T09:10:26.309Z,45.40
2023-04-19T09:13:04.350Z,44.40
2023-04-19T09:15:38.879Z,44.40
2023-04-19T09:18:10.406Z,44.30
2023-04-19T09:20:41.828Z,44.20
2023-04-19T09:23:13.903Z,44.30
2023-04-19T09:26:19.112Z,44.30
2023-04-19T09:28:32.557Z,44.60
2023-04-19T09:31:20.402Z,43.70
2023-04-19T09:33:40.109Z,44.00
2023-04-19T09:36:10.069Z,44.50
2023-04-19T09:38:52.685Z,43.90
2023-04-19T09:41:22.233Z,42.50
2023-04-19T09:44:07.782Z,41.80
2023-04-19T09:46:36.263Z,44.40
2023-04-19T09:49:33.791Z,43.80
2023-04-19T09:51:58.780Z,41.90
2023-04-19T09:54:29.811Z,41.60
2023-04-19T09:57:01.354Z,40.30
2023-04-19T09:59:30.441Z,39.70
2023-04-19T10:02:01.666Z,40.80
2023-04-19T10:04:44.092Z,39.10
2023-04-19T10:09:42.772Z,39.80
2023-04-19T10:12:21.218Z,39.00
2023-04-19T10:14:41.269Z,39.80
2023-04-19T10:17:11.218Z,40.90
2023-04-19T10:19:42.496Z,39.70
2023-04-19T10:22:13.163Z,38.30
2023-04-19T10:24:47.273Z,39.20
2023-04-19T10:27:16.785Z,38.30
2023-04-19T10:30:07.384Z,39.50
2023-04-19T10:32:41.988Z,39.70
2023-04-19T10:35:23.126Z,40.20
2023-04-19T10:38:13.397Z,39.70
2023-04-19T10:41:04.089Z,38.50
2023-04-19T10:43:35.259Z,38.80
2023-04-19T10:46:16.857Z,38.70
2023-04-19T10:49:03.217Z,40.30
2023-04-19T10:51:42.663Z,40.10
2023-04-19T10:54:33.325Z,39.40
2023-04-19T10:57:05.684Z,38.60
2023-04-19T10:59:40.616Z,38.90
2023-04-19T11:02:32.588Z,39.10
2023-04-19T11:05:04.333Z,39.90
2023-04-19T11:07:38.972Z,39.70
2023-04-19T11:10:09.317Z,39.30
2023-04-19T11:12:38.224Z,39.00
2023-04-19T11:15:09.831Z,40.30
2023-04-19T11:17:39.605Z,40.70
2023-04-19T11:20:13.901Z,40.30
2023-04-19T11:22:45.874Z,40.20
2023-04-19T11:25:22.844Z,39.90
2023-04-19T11:27:55.699Z,40.10
2023-04-19T11:30:30.336Z,40.40
2023-04-19T11:32:59.877Z,40.10
2023-04-19T11:35:33.238Z,40.60
2023-04-19T11:38:02.679Z,39.90
2023-04-19T11:40:32.583Z,40.10
2023-04-19T11:43:04.987Z,39.50
2023-04-19T11:45:39.460Z,39.00
2023-04-19T11:48:09.294Z,40.30
2023-04-19T11:50:40.463Z,39.90
2023-04-19T11:53:17.210Z,39.40
2023-04-19T11:55:51.940Z,38.60
2023-04-19T11:58:33.608Z,38.40
2023-04-19T12:01:08.367Z,39.10
2023-04-19T12:03:43.925Z,39.10
2023-04-19T12:06:16.589Z,38.80
2023-04-19T12:08:48.948Z,38.70
2023-04-19T12:11:21.585Z,38.60
2023-04-19T12:14:10.618Z,39.70
2023-04-19T12:16:40.194Z,39.80
2023-04-19T12:19:18.367Z,39.50
2023-04-19T12:21:48.901Z,39.20
2023-04-19T12:24:17.672Z,39.50
2023-04-19T12:26:58.047Z,38.80
2023-04-19T12:29:29.278Z,38.60
2023-04-19T12:31:58.751Z,39.20
2023-04-19T12:34:28.335Z,39.40
2023-04-19T12:36:58.288Z,39.30
2023-04-19T12:39:28.673Z,40.10
2023-04-19T12:41:57.707Z,39.50
2023-04-19T12:44:27.048Z,39.00
2023-04-19T12:46:57.719Z,39.20
2023-04-19T12:49:27.360Z,39.30
2023-04-19T12:51:57.603Z,38.80
2023-04-19T12:54:27.137Z,40.10
2023-04-19T12:56:57.556Z,40.60
2023-04-19T12:59:26.951Z,39.40
2023-04-19T13:01:56.473Z,39.80
2023-04-19T13:04:26.127Z,39.80
2023-04-19T13:06:55.742Z,39.70
2023-04-19T13:09:25.161Z,39.10
2023-04-19T13:11:56.431Z,40.30
2023-04-19T13:14:28.189Z,39.50
2023-04-19T13:16:57.744Z,40.10
2023-04-19T13:19:27.850Z,39.90
2023-04-19T13:21:57.445Z,39.50
2023-04-19T13:24:26.880Z,40.90
2023-04-19T13:26:56.657Z,40.10
2023-04-19T13:29:26.129Z,40.10
2023-04-19T13:31:55.674Z,40.30
2023-04-19T13:34:25.213Z,41.00
2023-04-19T13:36:54.639Z,39.40
2023-04-19T13:39:24.076Z,38.40
2023-04-19T13:41:53.523Z,39.30
2023-04-19T13:44:22.996Z,38.60
2023-04-19T13:46:52.694Z,38.30
2023-04-19T13:49:22.165Z,38.60
2023-04-19T13:51:51.688Z,38.40
2023-04-19T13:54:21.470Z,37.90
2023-04-19T13:56:52.319Z,38.90
2023-04-19T13:59:22.692Z,38.80
2023-04-19T14:01:53.979Z,37.90
2023-04-19T14:04:24.125Z,38.30
2023-04-19T14:06:54.116Z,38.20
2023-04-19T14:09:23.590Z,38.90
2023-04-19T14:11:53.082Z,37.60
2023-04-19T14:14:22.538Z,38.10
2023-04-19T14:16:51.937Z,37.60
2023-04-19T14:19:21.379Z,37.30
2023-04-19T14:21:50.805Z,38.30
2023-04-19T14:24:20.239Z,37.20
2023-04-19T14:26:57.026Z,37.30
2023-04-19T14:29:20.593Z,37.60
2023-04-19T14:31:50.038Z,37.90
2023-04-19T14:34:19.591Z,38.40
2023-04-19T14:36:51.003Z,38.10
2023-04-19T14:39:20.345Z,39.00
2023-04-19T14:41:49.744Z,38.60
2023-04-19T14:44:19.164Z,40.00
2023-04-19T14:46:48.820Z,39.40
2023-04-19T14:49:18.370Z,39.00
2023-04-19T14:51:47.976Z,39.20
2023-04-19T14:54:17.471Z,39.80
2023-04-19T14:56:46.968Z,40.00
2023-04-19T14:59:16.904Z,39.60
2023-04-19T15:01:46.668Z,39.60
2023-04-19T15:04:16.487Z,40.20
2023-04-19T15:06:46.062Z,39.20
2023-04-19T15:09:16.315Z,39.50
2023-04-19T15:11:46.223Z,39.00
2023-04-19T15:14:15.699Z,38.90
2023-04-19T15:16:45.142Z,38.80
2023-04-19T15:19:15.028Z,39.00
2023-04-19T15:21:44.599Z,38.90
2023-04-19T15:24:14.056Z,39.00
2023-04-19T15:26:44.580Z,39.50
2023-04-19T15:29:14.673Z,39.20
2023-04-19T15:31:44.399Z,40.30
2023-04-19T15:34:13.788Z,40.40
2023-04-19T15:36:43.214Z,40.40
2023-04-19T15:39:12.573Z,41.10
2023-04-19T15:41:42.083Z,41.50
2023-04-19T15:44:11.523Z,40.80
2023-04-19T15:46:41.333Z,41.50
2023-04-19T15:49:10.829Z,42.40
2023-04-19T15:51:40.560Z,41.80
2023-04-19T15:54:12.044Z,41.80
2023-04-19T15:56:41.557Z,42.10
2023-04-19T15:59:10.979Z,42.60
2023-04-19T16:01:40.558Z,42.30
2023-04-19T16:04:10.101Z,41.40
2023-04-19T16:06:39.688Z,41.30
2023-04-19T16:09:09.224Z,42.30
2023-04-19T16:11:39.281Z,42.60
2023-04-19T16:14:08.758Z,42.70
2023-04-19T16:16:38.207Z,42.80
2023-04-19T16:19:07.696Z,42.70
2023-04-19T16:21:37.188Z,43.20
2023-04-19T16:24:06.963Z,43.80
2023-04-19T16:26:36.443Z,43.70
2023-04-19T16:29:05.892Z,44.70
2023-04-19T16:31:37.591Z,44.60
2023-04-19T16:34:07.109Z,44.10
2023-04-19T16:36:36.624Z,45.00
2023-04-19T16:39:05.971Z,45.30
2023-04-19T16:41:35.455Z,46.10
2023-04-19T16:44:05.062Z,47.10
2023-04-19T16:46:34.551Z,47.80
2023-04-19T16:49:04.160Z,51.20
2023-04-19T16:51:33.596Z,52.10
2023-04-19T16:54:03.030Z,53.50
2023-04-19T16:56:32.624Z,54.00
2023-04-19T16:59:02.063Z,54.70
2023-04-19T17:01:31.543Z,54.60
2023-04-19T17:04:01.376Z,54.80
2023-04-19T17:06:32.062Z,54.10
2023-04-19T17:09:04.658Z,54.00
2023-04-19T17:11:34.437Z,54.60
2023-04-19T17:14:03.962Z,52.50
2023-04-19T17:16:33.434Z,52.40
2023-04-19T17:19:02.821Z,51.60
2023-04-19T17:21:32.368Z,50.60
2023-04-19T17:24:01.826Z,49.90
2023-04-19T17:26:31.390Z,49.10
2023-04-19T17:29:02.059Z,48.60
2023-04-19T17:31:31.796Z,48.40
2023-04-19T17:34:01.140Z,48.30
2023-04-19T17:36:31.571Z,48.20
2023-04-19T17:39:00.245Z,47.60
2023-04-19T17:41:29.672Z,47.50
2023-04-19T17:43:59.013Z,47.00
2023-04-19T17:46:28.559Z,47.10
2023-04-19T17:48:57.994Z,46.80
2023-04-19T17:51:27.479Z,47.00
2023-04-19T17:54:00.856Z,46.50
2023-04-19T17:56:31.175Z,46.70
2023-04-19T17:59:01.488Z,46.80
2023-04-19T18:01:32.064Z,46.70
2023-04-19T18:04:01.823Z,46.70
2023-04-19T18:06:31.708Z,47.10
2023-04-19T18:09:01.301Z,47.00
2023-04-19T18:11:30.659Z,47.10
2023-04-19T18:14:00.530Z,48.10
2023-04-19T18:16:29.974Z,49.20
2023-04-19T18:18:59.471Z,51.10
2023-04-19T18:21:28.981Z,52.30
2023-04-19T18:23:58.404Z,53.90
2023-04-19T18:26:39.444Z,53.70
2023-04-19T18:29:09.571Z,55.10
2023-04-19T18:31:39.097Z,55.70
2023-04-19T18:34:09.953Z,55.80
2023-04-19T18:36:39.621Z,55.70
2023-04-19T18:39:09.166Z,56.10
2023-04-19T18:41:38.538Z,56.40
2023-04-19T18:44:34.730Z,57.30
2023-04-19T18:46:38.982Z,57.20
2023-04-19T18:49:08.537Z,58.20
2023-04-19T18:51:38.028Z,58.70
2023-04-19T18:54:07.626Z,60.90
2023-04-19T18:59:08.008Z,64.00
2023-04-19T19:01:37.558Z,64.30
2023-04-19T19:04:28.272Z,64.70
2023-04-19T19:06:38.789Z,65.30
2023-04-19T19:09:08.325Z,64.60
2023-04-19T19:11:55.428Z,65.00
2023-04-19T19:14:09.329Z,64.70
2023-04-19T19:16:50.789Z,64.70
2023-04-19T19:19:10.349Z,64.50
2023-04-19T19:21:39.775Z,65.00
2023-04-19T19:24:09.254Z,64.60
2023-04-19T19:26:38.683Z,64.30
2023-04-19T19:29:09.465Z,64.40
2023-04-19T19:31:39.014Z,64.80
2023-04-19T19:34:19.983Z,64.50
2023-04-19T19:36:40.278Z,64.50
2023-04-19T19:39:10.952Z,64.70
2023-04-19T19:44:35.201Z,65.10
2023-04-19T19:47:09.906Z,64.60
2023-04-19T19:49:51.573Z,65.00
2023-04-19T19:52:07.005Z,65.00
2023-04-19T19:54:36.504Z,64.90
2023-04-19T19:59:37.385Z,64.80
2023-04-19T20:02:07.580Z,65.30
2023-04-19T20:04:38.776Z,64.60
2023-04-19T20:07:29.402Z,64.80
2023-04-19T20:09:39.821Z,64.20
2023-04-19T20:12:10.673Z,64.20
2023-04-19T20:14:40.471Z,63.80
2023-04-19T20:17:10.090Z,63.70
2023-04-19T20:19:40.056Z,65.10
2023-04-19T20:22:09.615Z,65.20
2023-04-19T20:24:40.392Z,64.40
2023-04-19T20:27:09.857Z,63.90
2023-04-19T20:29:39.355Z,63.90
2023-04-19T20:32:08.808Z,64.50
2023-04-19T20:34:39.573Z,64.50
2023-04-19T20:37:09.693Z,64.10
2023-04-19T20:39:39.185Z,63.70
2023-04-19T20:42:08.670Z,63.20
2023-04-19T20:44:38.028Z,63.30
2023-04-19T20:47:08.901Z,65.70
2023-04-19T20:49:38.302Z,67.60
2023-04-19T20:52:08.019Z,66.40
2023-04-19T20:54:38.744Z,67.10
2023-04-19T20:57:08.631Z,67.90
2023-04-19T20:59:39.164Z,67.20
2023-04-19T21:02:09.494Z,68.20
2023-04-19T21:04:38.262Z,67.60
2023-04-19T21:07:07.686Z,67.40
2023-04-19T21:09:37.195Z,69.60
2023-04-19T21:12:06.664Z,70.40
2023-04-19T21:14:36.154Z,70.50
2023-04-19T21:17:05.864Z,72.00
2023-04-19T21:19:35.693Z,72.00
2023-04-19T21:22:05.290Z,72.40
2023-04-19T21:24:34.750Z,72.40
2023-04-19T21:27:04.088Z,72.50
2023-04-19T21:29:33.694Z,72.40
2023-04-19T21:32:03.764Z,72.10
2023-04-19T21:34:33.147Z,72.40
2023-04-19T21:37:02.600Z,72.20
2023-04-19T21:39:31.999Z,73.10
2023-04-19T21:42:01.492Z,72.70
2023-04-19T21:44:30.958Z,71.40
2023-04-19T21:47:00.359Z,69.90
2023-04-19T21:49:29.914Z,71.30
2023-04-19T21:51:59.315Z,71.50
2023-04-19T21:54:34.078Z,70.70
2023-04-19T21:57:00.482Z,71.50
2023-04-19T21:59:34.143Z,71.60
2023-04-19T22:02:04.332Z,71.60
2023-04-19T22:04:33.893Z,72.30
2023-04-19T22:07:03.352Z,73.40
2023-04-19T22:09:32.698Z,74.00
2023-04-19T22:12:02.382Z,74.50
2023-04-19T22:14:31.885Z,74.40
2023-04-19T22:17:02.543Z,73.90
2023-04-19T22:19:32.421Z,74.80
2023-04-19T22:22:02.092Z,75.10
2023-04-19T22:24:31.600Z,75.00
2023-04-19T22:27:01.821Z,75.50
2023-04-19T22:29:32.178Z,75.30
2023-04-19T22:32:00.882Z,75.00
2023-04-19T22:34:30.341Z,75.30
2023-04-19T22:36:59.693Z,75.00
2023-04-19T22:39:29.149Z,74.70
2023-04-19T22:41:58.500Z,75.00
2023-04-19T22:44:27.974Z,75.90
2023-04-19T22:46:58.287Z,75.30
2023-04-19T22:49:29.690Z,75.00
2023-04-19T22:51:59.673Z,75.00
2023-04-19T22:54:29.280Z,75.60
2023-04-19T22:56:58.642Z,75.90
2023-04-19T22:59:28.231Z,76.00
2023-04-19T23:01:57.693Z,76.40
2023-04-19T23:04:27.179Z,76.70
2023-04-19T23:06:56.600Z,76.60
2023-04-19T23:09:26.087Z,77.00
2023-04-19T23:11:55.507Z,77.20
2023-04-19T23:14:25.192Z,77.10
2023-04-19T23:16:54.706Z,77.90
2023-04-19T23:19:25.271Z,77.70
2023-04-19T23:21:54.640Z,77.70
2023-04-19T23:24:24.134Z,78.40
2023-04-19T23:26:53.619Z,78.70
2023-04-19T23:29:23.051Z,78.40
2023-04-19T23:31:52.633Z,78.90
2023-04-19T23:34:22.352Z,78.50
2023-04-19T23:36:51.776Z,78.10
2023-04-19T23:39:21.505Z,77.80
2023-04-19T23:41:50.945Z,77.80
2023-04-19T23:44:20.432Z,77.70
2023-04-19T23:46:49.882Z,77.80
2023-04-19T23:49:19.684Z,77.90
2023-04-19T23:51:51.784Z,78.40
2023-04-19T23:54:22.512Z,78.10
2023-04-19T23:56:52.520Z,78.70
2023-04-19T23:59:23.583Z,77.30
